Aérodrome :
LOGIN :

S'inscrire | Disclaimer

   EN    FR    IT 

 










Légende :    VFR   VFR Marginal   IFR   IFR Intensif   IFR Très Intensif
Visi : 
Plafond : 
>= 8 km
>= 3000ft
5 à 8 km
1000 à 3000 ft
1500m à 5 km
500 à 1000 ft
800 à 1500m
200 à 500 ft
< 800m
< 200 ft
Symboles :   Orages  Brouillard  Fortes neiges  Fortes précipitations  Vent > 20 kt
SIGMETs :   Divers  Orages  Givrage  Turbulence  Onde Orograph.  Cendres Volcan.







- Altitude de l'aérodrome : 935 ft


EBFS - Florennes

DERNIER METAR :
  • 171325Z AUTO 19012KT 9999 NCD 14/M03 Q1020 BLU

METARs EXPIRÉS :
  • 171255Z AUTO 19009KT 9999 NCD 14/M02 Q1020 BLU
  • 171225Z AUTO 20013KT 9999 FEW210/// 14/M04 Q1020 BLU
  • 171155Z AUTO 18013KT 9999 FEW110/// 14/M02 Q1020 BLU
  • 171125Z AUTO 17012KT 9999 NCD 13/M01 Q1020 BLU
  • 171055Z AUTO 18011KT 9999 NCD 12/M02 Q1021 BLU

TAF TAF EBFS
Valide du 17 à 13h jusqu'au 17 à 22h UTC


171141Z 1713/1722 17013KT 9999 SCT240
BECMG 1720/1722 20008KT
Pas de NOTAMs connus pour ce terrain.



MET'MAP, la Météo Aéronautique d'un coup d'oeil ! - Copyright ORBIFLY Décembre 2007 - Disclaimer

ORBIFLY MET'MAP TEAM :

Programmation & Développement : Alexandra Zaïnal
Conception & Développement : Baudouin d'Aumeries
Co-Programmation & Développement : Marc-Olivier Méhu
Soutien technique & logistique : Manuel Goepfert

Contact : metmap@orbifly.com




SOURCES & CREDITS :

   NOAA